createdAt,value
2022-12-31T00:02:45.663Z,3.31
2022-12-31T00:05:47.502Z,3.31
2022-12-31T00:08:51.213Z,3.20
2022-12-31T00:11:53.083Z,3.20
2022-12-31T00:14:54.873Z,3.20
2022-12-31T00:17:56.674Z,3.18
2022-12-31T00:20:58.562Z,3.17
2022-12-31T00:24:01.022Z,3.08
2022-12-31T00:27:03.093Z,3.08
2022-12-31T00:30:05.424Z,3.08
2022-12-31T00:33:07.448Z,3.06
2022-12-31T00:36:12.518Z,3.11
2022-12-31T00:39:14.452Z,3.08
2022-12-31T00:42:16.350Z,3.07
2022-12-31T00:45:18.173Z,3.02
2022-12-31T00:48:20.048Z,2.98
2022-12-31T00:51:24.047Z,3.06
2022-12-31T00:54:25.950Z,3.05
2022-12-31T00:57:27.807Z,3.07
2022-12-31T01:00:29.643Z,3.07
2022-12-31T01:03:31.635Z,3.09
2022-12-31T01:06:33.700Z,3.04
2022-12-31T01:09:35.566Z,3.06
2022-12-31T01:12:37.425Z,3.09
2022-12-31T01:15:39.561Z,3.12
2022-12-31T01:18:42.115Z,3.06
2022-12-31T01:21:45.457Z,3.06
2022-12-31T01:24:47.310Z,3.00
2022-12-31T01:27:49.097Z,3.05
2022-12-31T01:30:51.022Z,3.06
2022-12-31T01:33:53.748Z,3.06
2022-12-31T01:36:55.664Z,2.96
2022-12-31T01:39:57.510Z,2.91
2022-12-31T01:42:59.361Z,2.87
2022-12-31T01:46:01.236Z,2.78
2022-12-31T01:49:08.784Z,2.67
2022-12-31T01:52:17.808Z,2.68
2022-12-31T01:55:30.457Z,2.63
2022-12-31T01:58:39.418Z,2.58
2022-12-31T02:01:41.350Z,2.50
2022-12-31T02:04:43.532Z,2.50
2022-12-31T02:07:47.477Z,2.50
2022-12-31T02:10:49.338Z,2.46
2022-12-31T02:13:58.159Z,2.50
2022-12-31T02:17:07.492Z,2.50
2022-12-31T02:20:37.349Z,2.53
2022-12-31T02:23:57.376Z,2.52
2022-12-31T02:27:10.386Z,2.49
2022-12-31T02:30:22.898Z,2.55
2022-12-31T02:33:33.032Z,2.56
2022-12-31T02:36:38.999Z,2.44
2022-12-31T02:39:43.273Z,2.53
2022-12-31T02:42:48.615Z,2.56
2022-12-31T02:46:14.906Z,2.59
2022-12-31T02:49:21.457Z,2.37
2022-12-31T02:52:39.955Z,2.38
2022-12-31T02:56:22.324Z,2.34
2022-12-31T03:00:12.160Z,2.31
2022-12-31T03:03:14.208Z,2.20
2022-12-31T03:06:16.236Z,2.27
2022-12-31T03:09:18.122Z,2.30
2022-12-31T03:12:41.034Z,2.35
2022-12-31T03:15:42.993Z,2.35
2022-12-31T03:19:03.450Z,2.33
2022-12-31T03:22:23.999Z,2.38
2022-12-31T03:25:35.420Z,2.41
2022-12-31T03:28:39.555Z,2.43
2022-12-31T03:31:41.511Z,2.36
2022-12-31T03:34:43.595Z,2.40
2022-12-31T03:37:45.433Z,2.46
2022-12-31T03:40:50.623Z,2.48
2022-12-31T03:43:52.468Z,2.54
2022-12-31T03:46:54.312Z,2.57
2022-12-31T03:49:56.184Z,2.57
2022-12-31T03:52:58.545Z,2.57
2022-12-31T03:56:00.486Z,2.55
2022-12-31T03:59:02.312Z,2.59
2022-12-31T04:02:04.947Z,2.62
2022-12-31T04:05:07.681Z,2.61
2022-12-31T04:08:09.634Z,2.64
2022-12-31T04:11:14.731Z,2.69
2022-12-31T04:14:20.876Z,2.68
2022-12-31T04:17:22.724Z,2.55
2022-12-31T04:20:24.666Z,2.52
2022-12-31T04:23:26.515Z,2.54
2022-12-31T04:26:28.330Z,2.42
2022-12-31T04:29:30.138Z,2.47
2022-12-31T04:32:31.975Z,2.50
2022-12-31T04:35:33.811Z,2.47
2022-12-31T04:38:35.792Z,2.46
2022-12-31T04:41:37.611Z,2.46
2022-12-31T04:44:39.406Z,2.49
2022-12-31T04:47:41.280Z,2.45
2022-12-31T04:50:43.100Z,2.37
2022-12-31T04:53:45.349Z,2.38
2022-12-31T04:56:47.162Z,2.37
2022-12-31T04:59:49.053Z,2.27
2022-12-31T05:02:50.944Z,2.31
2022-12-31T05:05:53.916Z,2.22
2022-12-31T05:08:55.856Z,2.21
2022-12-31T05:11:57.744Z,2.04
2022-12-31T05:14:59.614Z,2.00
2022-12-31T05:18:01.531Z,2.01
2022-12-31T05:21:03.590Z,2.01
2022-12-31T05:24:05.958Z,1.90
2022-12-31T05:27:07.796Z,1.83
2022-12-31T05:30:10.132Z,1.85
2022-12-31T05:33:12.039Z,1.90
2022-12-31T05:36:14.714Z,1.83
2022-12-31T05:39:17.915Z,1.94
2022-12-31T05:42:19.791Z,1.90
2022-12-31T05:45:26.799Z,1.92
2022-12-31T05:48:32.479Z,1.75
2022-12-31T05:51:34.366Z,1.75
2022-12-31T05:54:36.727Z,1.72
2022-12-31T05:57:39.578Z,1.74
2022-12-31T06:00:42.848Z,1.88
2022-12-31T06:03:44.740Z,1.88
2022-12-31T06:06:46.678Z,1.83
2022-12-31T06:09:49.086Z,1.92
2022-12-31T06:12:50.849Z,1.89
2022-12-31T06:15:52.651Z,1.94
2022-12-31T06:18:54.773Z,1.95
2022-12-31T06:21:56.768Z,1.87
2022-12-31T06:24:58.572Z,1.86
2022-12-31T06:28:00.573Z,1.99
2022-12-31T06:31:07.901Z,2.06
2022-12-31T06:34:10.406Z,2.08
2022-12-31T06:37:12.316Z,2.00
2022-12-31T06:40:14.699Z,2.09
2022-12-31T06:43:16.477Z,2.07
2022-12-31T06:46:18.823Z,2.20
2022-12-31T06:49:20.803Z,2.19
2022-12-31T06:52:22.927Z,2.22
2022-12-31T06:55:25.225Z,2.25
2022-12-31T06:58:27.346Z,2.08
2022-12-31T07:01:44.684Z,2.16
2022-12-31T07:05:28.229Z,2.29
2022-12-31T07:09:14.581Z,2.33
2022-12-31T07:12:45.673Z,2.35
2022-12-31T07:16:01.436Z,2.33
2022-12-31T07:19:24.255Z,2.31
2022-12-31T07:22:26.592Z,2.36
2022-12-31T07:25:28.895Z,2.43
2022-12-31T07:28:42.492Z,2.37
2022-12-31T07:31:50.116Z,2.47
2022-12-31T07:35:10.964Z,2.41
2022-12-31T07:38:47.862Z,2.41
2022-12-31T07:42:14.125Z,2.48
2022-12-31T07:45:28.556Z,2.52
2022-12-31T07:48:31.061Z,2.64
2022-12-31T07:51:34.785Z,2.54
2022-12-31T07:54:36.592Z,2.59
2022-12-31T07:58:09.136Z,2.63
2022-12-31T08:01:19.981Z,2.68
2022-12-31T08:04:40.805Z,2.74
2022-12-31T08:07:48.091Z,2.62
2022-12-31T08:11:16.898Z,2.77
2022-12-31T08:14:19.675Z,2.72
2022-12-31T08:17:21.797Z,2.79
2022-12-31T08:20:23.704Z,2.83
2022-12-31T08:23:33.880Z,2.85
2022-12-31T08:26:53.171Z,2.92
2022-12-31T08:30:01.677Z,2.99
2022-12-31T08:33:22.124Z,3.01
2022-12-31T08:36:38.960Z,2.98
2022-12-31T08:40:03.402Z,3.00
2022-12-31T08:43:49.655Z,3.11
2022-12-31T08:47:03.437Z,3.09
2022-12-31T08:50:06.864Z,3.10
2022-12-31T08:53:08.916Z,3.13
2022-12-31T08:56:17.413Z,3.23
2022-12-31T08:59:53.002Z,3.23
2022-12-31T09:03:16.884Z,3.27
2022-12-31T09:06:31.640Z,3.21
2022-12-31T09:09:51.252Z,3.25
2022-12-31T09:13:15.807Z,3.24
2022-12-31T09:16:30.313Z,3.15
2022-12-31T09:19:32.190Z,3.25
2022-12-31T09:22:34.255Z,3.21
2022-12-31T09:25:45.104Z,3.27
2022-12-31T09:29:17.330Z,3.32
2022-12-31T09:32:19.094Z,3.33
2022-12-31T09:35:53.844Z,3.25
2022-12-31T09:39:12.832Z,3.22
2022-12-31T09:42:52.157Z,3.06
2022-12-31T09:46:08.979Z,3.20
2022-12-31T09:49:22.963Z,3.28
2022-12-31T09:52:36.593Z,3.13
2022-12-31T09:56:02.141Z,3.24
2022-12-31T09:59:17.905Z,3.26
2022-12-31T10:02:41.893Z,3.29
2022-12-31T10:06:21.299Z,3.24
2022-12-31T10:09:41.704Z,3.15
2022-12-31T10:13:15.699Z,3.03
2022-12-31T10:16:39.497Z,3.08
2022-12-31T10:20:17.000Z,3.17
2022-12-31T10:23:37.334Z,3.18
2022-12-31T10:27:00.310Z,3.17
2022-12-31T10:30:17.314Z,3.19
2022-12-31T17:11:31.393Z,1.94
2022-12-31T17:14:48.508Z,2.05
2022-12-31T17:17:55.148Z,2.14
2022-12-31T17:21:06.955Z,2.22
2022-12-31T17:24:13.056Z,2.20
2022-12-31T17:27:15.067Z,2.20
2022-12-31T17:30:34.994Z,2.24
2022-12-31T17:33:37.060Z,2.23
2022-12-31T17:36:40.670Z,2.20
2022-12-31T17:39:45.499Z,2.16
2022-12-31T17:42:47.548Z,2.18
2022-12-31T17:45:54.323Z,2.14
2022-12-31T17:49:01.625Z,2.12
2022-12-31T17:52:03.673Z,2.08
2022-12-31T17:55:05.835Z,2.04
2022-12-31T17:58:15.363Z,2.01
2022-12-31T18:01:20.315Z,1.98
2022-12-31T18:04:22.277Z,2.00
2022-12-31T18:07:24.121Z,2.01
2022-12-31T18:10:27.817Z,2.02
2022-12-31T18:13:30.849Z,1.99
2022-12-31T18:16:32.588Z,1.94
2022-12-31T18:22:56.395Z,1.88
2022-12-31T18:25:58.288Z,1.88
2022-12-31T18:29:11.134Z,1.88
2022-12-31T18:32:31.956Z,1.88
2022-12-31T18:36:07.027Z,1.88
2022-12-31T18:38:55.931Z,1.77
2022-12-31T18:41:57.858Z,1.75
2022-12-31T18:44:59.869Z,1.75
2022-12-31T18:48:01.875Z,1.73
2022-12-31T18:51:03.749Z,1.65
2022-12-31T18:54:06.973Z,1.56
2022-12-31T18:57:11.932Z,1.57
2022-12-31T19:00:14.344Z,1.56
2022-12-31T19:03:18.236Z,1.53
2022-12-31T19:06:20.237Z,1.52
2022-12-31T19:12:44.599Z,1.56
2022-12-31T19:15:49.663Z,1.54
2022-12-31T19:18:51.557Z,1.53
2022-12-31T19:21:53.409Z,1.51
2022-12-31T19:24:55.301Z,1.48
2022-12-31T19:27:57.200Z,1.49
2022-12-31T19:30:59.096Z,1.47
2022-12-31T19:34:00.877Z,1.43
2022-12-31T19:37:02.829Z,1.38
2022-12-31T19:40:05.323Z,1.34
2022-12-31T19:43:13.004Z,1.29
2022-12-31T19:46:17.707Z,1.28
2022-12-31T19:49:19.690Z,1.32
2022-12-31T19:52:21.489Z,1.27
2022-12-31T19:55:27.979Z,1.24
2022-12-31T19:58:29.927Z,1.27
2022-12-31T20:01:31.877Z,1.22
2022-12-31T20:04:33.819Z,1.24
2022-12-31T20:07:35.860Z,1.23
2022-12-31T20:10:37.874Z,1.23
2022-12-31T20:13:40.446Z,1.26
2022-12-31T20:16:42.435Z,1.28
2022-12-31T20:19:44.536Z,1.30
2022-12-31T20:22:46.369Z,1.26
2022-12-31T20:25:57.288Z,1.20
2022-12-31T20:28:59.486Z,1.12
2022-12-31T20:32:03.163Z,1.21
2022-12-31T20:35:05.532Z,1.17
2022-12-31T20:38:07.427Z,1.15
2022-12-31T20:41:12.322Z,1.20
2022-12-31T20:44:14.185Z,1.19
2022-12-31T20:47:15.949Z,1.20
2022-12-31T20:50:18.297Z,1.21
2022-12-31T20:53:20.204Z,1.23
2022-12-31T20:56:23.342Z,1.21
2022-12-31T20:59:25.177Z,1.20
2022-12-31T21:02:40.900Z,1.24
2022-12-31T21:05:54.137Z,1.20
2022-12-31T21:08:57.252Z,1.21
2022-12-31T21:12:25.261Z,1.18
2022-12-31T21:15:27.583Z,1.23
2022-12-31T21:18:29.491Z,1.28
2022-12-31T21:21:31.777Z,1.27
2022-12-31T21:24:33.687Z,1.30
2022-12-31T21:27:36.097Z,1.33
2022-12-31T21:30:41.781Z,1.36
2022-12-31T21:33:45.273Z,1.40
2022-12-31T21:36:47.306Z,1.40
2022-12-31T21:39:49.228Z,1.42
2022-12-31T21:42:51.233Z,1.44
2022-12-31T21:46:04.636Z,1.48
2022-12-31T21:49:07.448Z,1.51
2022-12-31T21:52:30.459Z,1.49
2022-12-31T21:55:50.954Z,1.54
2022-12-31T21:59:14.928Z,1.57
2022-12-31T22:02:35.320Z,1.56
2022-12-31T22:05:39.719Z,1.53
2022-12-31T22:08:44.084Z,1.56
2022-12-31T22:11:46.265Z,1.59
2022-12-31T22:15:14.389Z,1.61
2022-12-31T22:18:10.782Z,1.63
2022-12-31T22:21:19.466Z,1.64
2022-12-31T22:24:22.549Z,1.62
2022-12-31T22:27:29.570Z,1.65
2022-12-31T22:30:33.635Z,1.70
2022-12-31T22:33:35.758Z,1.66
2022-12-31T22:36:37.580Z,1.70
2022-12-31T22:39:43.860Z,1.74
2022-12-31T22:42:46.614Z,1.76
2022-12-31T22:45:48.495Z,1.76
2022-12-31T22:48:51.443Z,1.77
2022-12-31T22:51:58.709Z,1.75
2022-12-31T22:55:02.740Z,1.80
2022-12-31T22:58:04.628Z,1.74
2022-12-31T23:01:08.173Z,1.81
2022-12-31T23:04:10.065Z,1.80
2022-12-31T23:07:12.043Z,1.69
2022-12-31T23:10:32.313Z,1.79
2022-12-31T23:14:01.323Z,1.88
2022-12-31T23:17:30.080Z,1.94
2022-12-31T23:20:52.423Z,1.97
2022-12-31T23:23:54.345Z,1.94
2022-12-31T23:26:57.387Z,2.01
2022-12-31T23:29:59.118Z,2.03
2022-12-31T23:33:01.062Z,2.05
2022-12-31T23:36:06.826Z,2.04
2022-12-31T23:39:08.727Z,2.10
2022-12-31T23:42:10.740Z,2.11
2022-12-31T23:45:12.578Z,2.18
2022-12-31T23:48:14.444Z,2.19
2022-12-31T23:51:16.362Z,2.21
2022-12-31T23:54:18.239Z,2.25
2022-12-31T23:57:20.227Z,2.25
